sensor_id;sensor_type;location;lat;lon;timestamp;pressure;altitude;pressure_sealevel;temperature;humidity
54248;BME280;40161;39.768;2.722;2022-10-16T00:01:29;101308.38;;;20.94;47.75
54248;BME280;40161;39.768;2.722;2022-10-16T00:03:55;101304.09;;;20.90;47.91
54248;BME280;40161;39.768;2.722;2022-10-16T00:06:21;101301.25;;;20.93;48.79
54248;BME280;40161;39.768;2.722;2022-10-16T00:08:47;101299.75;;;20.85;48.44
54248;BME280;40161;39.768;2.722;2022-10-16T00:11:13;101303.72;;;20.88;48.25
54248;BME280;40161;39.768;2.722;2022-10-16T00:13:40;101299.16;;;20.74;49.51
54248;BME280;40161;39.768;2.722;2022-10-16T00:16:06;101310.47;;;20.63;49.98
54248;BME280;40161;39.768;2.722;2022-10-16T00:18:32;101302.53;;;20.61;49.54
54248;BME280;40161;39.768;2.722;2022-10-16T00:21:07;101308.84;;;20.66;50.18
54248;BME280;40161;39.768;2.722;2022-10-16T00:23:34;101302.03;;;20.67;50.19
54248;BME280;40161;39.768;2.722;2022-10-16T00:26:00;101298.94;;;20.61;50.20
54248;BME280;40161;39.768;2.722;2022-10-16T00:28:26;101302.47;;;20.65;49.30
54248;BME280;40161;39.768;2.722;2022-10-16T00:30:52;101305.72;;;20.60;49.34
54248;BME280;40161;39.768;2.722;2022-10-16T00:33:18;101312.03;;;20.64;50.06
54248;BME280;40161;39.768;2.722;2022-10-16T00:35:43;101319.66;;;20.60;50.15
54248;BME280;40161;39.768;2.722;2022-10-16T00:38:09;101326.03;;;20.60;49.19
54248;BME280;40161;39.768;2.722;2022-10-16T00:40:34;101328.56;;;20.51;49.29
54248;BME280;40161;39.768;2.722;2022-10-16T00:43:00;101325.44;;;20.46;49.96
54248;BME280;40161;39.768;2.722;2022-10-16T00:45:25;101338.16;;;20.47;50.30
54248;BME280;40161;39.768;2.722;2022-10-16T00:47:51;101348.91;;;20.48;49.39
54248;BME280;40161;39.768;2.722;2022-10-16T00:50:33;101339.78;;;20.44;49.07
54248;BME280;40161;39.768;2.722;2022-10-16T00:52:59;101349.00;;;20.41;50.41
54248;BME280;40161;39.768;2.722;2022-10-16T00:55:26;101343.03;;;20.39;49.96
54248;BME280;40161;39.768;2.722;2022-10-16T00:57:51;101328.22;;;20.46;50.68
54248;BME280;40161;39.768;2.722;2022-10-16T01:00:21;101319.00;;;20.52;50.26
54248;BME280;40161;39.768;2.722;2022-10-16T01:02:53;101302.53;;;20.61;48.95
54248;BME280;40161;39.768;2.722;2022-10-16T01:05:20;101283.81;;;20.62;49.13
54248;BME280;40161;39.768;2.722;2022-10-16T01:10:28;101272.28;;;20.60;49.28
54248;BME280;40161;39.768;2.722;2022-10-16T01:15:47;101249.56;;;20.61;49.75
54248;BME280;40161;39.768;2.722;2022-10-16T01:21:05;101215.13;;;20.72;48.52
54248;BME280;40161;39.768;2.722;2022-10-16T01:23:58;101205.84;;;20.78;48.90
54248;BME280;40161;39.768;2.722;2022-10-16T01:26:42;101188.63;;;20.83;48.27
54248;BME280;40161;39.768;2.722;2022-10-16T01:29:18;101174.63;;;20.87;47.91
54248;BME280;40161;39.768;2.722;2022-10-16T01:31:44;101178.13;;;20.91;48.54
54248;BME280;40161;39.768;2.722;2022-10-16T01:34:16;101178.91;;;20.92;48.63
54248;BME280;40161;39.768;2.722;2022-10-16T01:36:53;101189.72;;;20.90;48.44
54248;BME280;40161;39.768;2.722;2022-10-16T01:39:21;101198.09;;;20.90;49.71
54248;BME280;40161;39.768;2.722;2022-10-16T01:41:58;101206.88;;;20.88;49.50
54248;BME280;40161;39.768;2.722;2022-10-16T01:44:26;101213.19;;;20.92;51.71
54248;BME280;40161;39.768;2.722;2022-10-16T01:46:54;101227.09;;;21.16;51.19
54248;BME280;40161;39.768;2.722;2022-10-16T01:49:20;101227.88;;;21.40;48.84
54248;BME280;40161;39.768;2.722;2022-10-16T01:54:11;101226.09;;;21.49;48.12
54248;BME280;40161;39.768;2.722;2022-10-16T01:56:39;101236.41;;;21.52;49.94
54248;BME280;40161;39.768;2.722;2022-10-16T01:59:11;101248.94;;;21.44;49.87
54248;BME280;40161;39.768;2.722;2022-10-16T02:01:38;101264.09;;;21.63;49.83
54248;BME280;40161;39.768;2.722;2022-10-16T02:04:09;101265.75;;;21.61;50.46
54248;BME280;40161;39.768;2.722;2022-10-16T02:06:36;101275.50;;;21.92;52.23
54248;BME280;40161;39.768;2.722;2022-10-16T02:09:02;101275.34;;;21.99;53.34
54248;BME280;40161;39.768;2.722;2022-10-16T02:11:27;101279.50;;;21.91;54.13
54248;BME280;40161;39.768;2.722;2022-10-16T02:13:54;101279.97;;;22.26;54.98
54248;BME280;40161;39.768;2.722;2022-10-16T02:16:20;101269.81;;;22.16;55.44
54248;BME280;40161;39.768;2.722;2022-10-16T02:18:45;101256.22;;;21.98;55.56
54248;BME280;40161;39.768;2.722;2022-10-16T02:23:48;101251.84;;;21.77;56.83
54248;BME280;40161;39.768;2.722;2022-10-16T02:26:17;101243.25;;;21.68;54.99
54248;BME280;40161;39.768;2.722;2022-10-16T02:28:46;101235.09;;;21.77;55.12
54248;BME280;40161;39.768;2.722;2022-10-16T02:31:15;101231.53;;;21.76;55.28
54248;BME280;40161;39.768;2.722;2022-10-16T02:33:42;101229.50;;;21.77;54.08
54248;BME280;40161;39.768;2.722;2022-10-16T02:36:08;101210.41;;;21.75;53.07
54248;BME280;40161;39.768;2.722;2022-10-16T02:38:34;101200.00;;;21.76;53.67
54248;BME280;40161;39.768;2.722;2022-10-16T02:40:59;101196.06;;;21.73;53.25
54248;BME280;40161;39.768;2.722;2022-10-16T02:43:25;101193.44;;;21.66;53.90
54248;BME280;40161;39.768;2.722;2022-10-16T02:45:51;101182.25;;;21.66;54.47
54248;BME280;40161;39.768;2.722;2022-10-16T02:48:16;101173.66;;;21.77;58.49
54248;BME280;40161;39.768;2.722;2022-10-16T02:50:42;101163.00;;;21.72;57.52
54248;BME280;40161;39.768;2.722;2022-10-16T02:53:07;101157.81;;;21.70;57.28
54248;BME280;40161;39.768;2.722;2022-10-16T02:55:32;101161.63;;;21.60;54.37
54248;BME280;40161;39.768;2.722;2022-10-16T02:57:58;101159.44;;;21.51;51.17
54248;BME280;40161;39.768;2.722;2022-10-16T03:00:23;101154.94;;;21.38;51.77
54248;BME280;40161;39.768;2.722;2022-10-16T03:02:49;101157.28;;;21.39;52.23
54248;BME280;40161;39.768;2.722;2022-10-16T03:05:15;101165.94;;;21.25;52.07
54248;BME280;40161;39.768;2.722;2022-10-16T03:07:40;101161.44;;;21.31;51.12
54248;BME280;40161;39.768;2.722;2022-10-16T03:10:05;101166.19;;;21.34;49.93
54248;BME280;40161;39.768;2.722;2022-10-16T03:12:31;101154.16;;;21.37;49.93
54248;BME280;40161;39.768;2.722;2022-10-16T03:14:56;101163.94;;;21.45;47.10
54248;BME280;40161;39.768;2.722;2022-10-16T03:17:22;101166.22;;;21.50;49.16
54248;BME280;40161;39.768;2.722;2022-10-16T03:19:48;101157.72;;;21.38;49.60
54248;BME280;40161;39.768;2.722;2022-10-16T03:22:13;101170.22;;;21.29;48.95
54248;BME280;40161;39.768;2.722;2022-10-16T03:24:38;101165.50;;;21.26;49.37
54248;BME280;40161;39.768;2.722;2022-10-16T03:27:04;101165.84;;;21.28;49.52
54248;BME280;40161;39.768;2.722;2022-10-16T03:29:29;101161.91;;;21.26;49.91
54248;BME280;40161;39.768;2.722;2022-10-16T03:31:55;101174.00;;;21.19;50.06
54248;BME280;40161;39.768;2.722;2022-10-16T03:34:20;101157.00;;;21.14;49.33
54248;BME280;40161;39.768;2.722;2022-10-16T03:36:45;101162.50;;;21.17;47.15
54248;BME280;40161;39.768;2.722;2022-10-16T03:39:11;101172.44;;;21.18;48.05
54248;BME280;40161;39.768;2.722;2022-10-16T03:41:36;101166.44;;;21.20;48.15
54248;BME280;40161;39.768;2.722;2022-10-16T03:44:02;101159.97;;;21.23;45.25
54248;BME280;40161;39.768;2.722;2022-10-16T03:46:27;101172.81;;;21.40;42.97
54248;BME280;40161;39.768;2.722;2022-10-16T03:48:52;101162.88;;;21.59;43.67
54248;BME280;40161;39.768;2.722;2022-10-16T03:51:18;101166.53;;;21.92;41.83
54248;BME280;40161;39.768;2.722;2022-10-16T03:53:43;101160.50;;;21.94;44.90
54248;BME280;40161;39.768;2.722;2022-10-16T03:56:08;101159.28;;;21.95;44.19
54248;BME280;40161;39.768;2.722;2022-10-16T03:58:34;101160.94;;;22.09;45.16
54248;BME280;40161;39.768;2.722;2022-10-16T04:00:59;101156.28;;;22.22;45.67
54248;BME280;40161;39.768;2.722;2022-10-16T04:03:24;101177.00;;;22.24;45.66
54248;BME280;40161;39.768;2.722;2022-10-16T04:05:50;101174.13;;;22.44;48.10
54248;BME280;40161;39.768;2.722;2022-10-16T04:08:15;101173.44;;;22.40;48.17
54248;BME280;40161;39.768;2.722;2022-10-16T04:10:44;101186.00;;;22.32;50.51
54248;BME280;40161;39.768;2.722;2022-10-16T04:13:09;101171.06;;;22.39;51.71
54248;BME280;40161;39.768;2.722;2022-10-16T04:15:35;101169.03;;;22.39;52.39
54248;BME280;40161;39.768;2.722;2022-10-16T04:18:00;101184.69;;;22.37;52.80
54248;BME280;40161;39.768;2.722;2022-10-16T04:20:25;101184.44;;;22.31;54.08
54248;BME280;40161;39.768;2.722;2022-10-16T04:22:51;101178.31;;;22.20;52.59
54248;BME280;40161;39.768;2.722;2022-10-16T04:25:16;101183.81;;;22.23;55.83
54248;BME280;40161;39.768;2.722;2022-10-16T04:27:41;101188.44;;;22.30;56.45
54248;BME280;40161;39.768;2.722;2022-10-16T04:30:07;101188.88;;;22.28;56.52
54248;BME280;40161;39.768;2.722;2022-10-16T04:32:32;101185.13;;;22.35;56.82
54248;BME280;40161;39.768;2.722;2022-10-16T04:34:58;101182.94;;;22.43;54.77
54248;BME280;40161;39.768;2.722;2022-10-16T04:37:26;101190.78;;;22.32;57.02
54248;BME280;40161;39.768;2.722;2022-10-16T04:39:52;101195.78;;;22.24;58.83
54248;BME280;40161;39.768;2.722;2022-10-16T04:42:18;101197.44;;;22.21;58.91
54248;BME280;40161;39.768;2.722;2022-10-16T04:44:43;101198.81;;;22.30;58.71
54248;BME280;40161;39.768;2.722;2022-10-16T04:47:08;101203.38;;;22.23;59.45
54248;BME280;40161;39.768;2.722;2022-10-16T04:49:34;101206.50;;;22.25;58.65
54248;BME280;40161;39.768;2.722;2022-10-16T04:51:59;101205.22;;;22.30;57.33
54248;BME280;40161;39.768;2.722;2022-10-16T04:54:24;101208.19;;;22.23;57.06
54248;BME280;40161;39.768;2.722;2022-10-16T04:56:50;101216.03;;;22.28;55.80
54248;BME280;40161;39.768;2.722;2022-10-16T04:59:17;101226.56;;;22.40;55.18
54248;BME280;40161;39.768;2.722;2022-10-16T05:01:43;101223.75;;;22.40;57.49
54248;BME280;40161;39.768;2.722;2022-10-16T05:04:09;101232.38;;;22.30;58.74
54248;BME280;40161;39.768;2.722;2022-10-16T05:06:34;101242.88;;;22.42;60.20
54248;BME280;40161;39.768;2.722;2022-10-16T05:09:00;101249.59;;;22.28;61.25
54248;BME280;40161;39.768;2.722;2022-10-16T05:11:25;101250.38;;;22.28;61.10
54248;BME280;40161;39.768;2.722;2022-10-16T05:13:50;101258.06;;;22.24;61.48
54248;BME280;40161;39.768;2.722;2022-10-16T05:16:16;101262.66;;;22.15;61.93
54248;BME280;40161;39.768;2.722;2022-10-16T05:18:42;101265.59;;;22.08;62.12
54248;BME280;40161;39.768;2.722;2022-10-16T05:21:07;101269.59;;;22.07;61.78
54248;BME280;40161;39.768;2.722;2022-10-16T05:23:32;101266.53;;;22.01;60.86
54248;BME280;40161;39.768;2.722;2022-10-16T05:25:58;101264.59;;;21.98;60.06
54248;BME280;40161;39.768;2.722;2022-10-16T05:28:28;101282.38;;;21.88;57.45
54248;BME280;40161;39.768;2.722;2022-10-16T05:30:54;101280.94;;;21.79;56.01
54248;BME280;40161;39.768;2.722;2022-10-16T05:33:23;101284.16;;;21.78;55.64
54248;BME280;40161;39.768;2.722;2022-10-16T05:35:49;101282.16;;;21.78;56.16
54248;BME280;40161;39.768;2.722;2022-10-16T05:38:15;101278.38;;;21.69;56.30
54248;BME280;40161;39.768;2.722;2022-10-16T05:40:41;101290.09;;;21.80;59.06
54248;BME280;40161;39.768;2.722;2022-10-16T05:43:06;101281.28;;;21.81;58.40
54248;BME280;40161;39.768;2.722;2022-10-16T05:45:31;101280.94;;;21.79;58.67
54248;BME280;40161;39.768;2.722;2022-10-16T05:47:57;101282.66;;;21.73;58.15
54248;BME280;40161;39.768;2.722;2022-10-16T05:50:22;101285.22;;;21.64;57.04
54248;BME280;40161;39.768;2.722;2022-10-16T05:52:47;101290.31;;;21.49;55.69
54248;BME280;40161;39.768;2.722;2022-10-16T05:55:13;101288.50;;;21.39;54.55
54248;BME280;40161;39.768;2.722;2022-10-16T05:57:38;101288.66;;;21.28;55.60
54248;BME280;40161;39.768;2.722;2022-10-16T06:00:04;101287.16;;;21.24;54.76
54248;BME280;40161;39.768;2.722;2022-10-16T06:02:29;101291.22;;;21.19;55.87
54248;BME280;40161;39.768;2.722;2022-10-16T06:04:54;101288.06;;;21.17;55.99
54248;BME280;40161;39.768;2.722;2022-10-16T06:07:20;101292.63;;;21.07;56.40
54248;BME280;40161;39.768;2.722;2022-10-16T06:09:49;101306.25;;;21.02;55.50
54248;BME280;40161;39.768;2.722;2022-10-16T06:12:15;101305.91;;;21.00;55.59
54248;BME280;40161;39.768;2.722;2022-10-16T06:14:40;101309.59;;;20.93;56.20
54248;BME280;40161;39.768;2.722;2022-10-16T06:17:06;101316.88;;;20.87;56.22
54248;BME280;40161;39.768;2.722;2022-10-16T06:19:31;101309.25;;;20.64;57.29
54248;BME280;40161;39.768;2.722;2022-10-16T06:21:56;101315.53;;;20.72;57.56
54248;BME280;40161;39.768;2.722;2022-10-16T06:24:23;101320.19;;;20.78;56.42
54248;BME280;40161;39.768;2.722;2022-10-16T06:26:48;101321.78;;;20.79;57.15
54248;BME280;40161;39.768;2.722;2022-10-16T06:29:13;101332.56;;;20.77;56.63
54248;BME280;40161;39.768;2.722;2022-10-16T06:31:39;101330.56;;;20.78;57.39
54248;BME280;40161;39.768;2.722;2022-10-16T06:34:04;101333.84;;;20.73;58.00
54248;BME280;40161;39.768;2.722;2022-10-16T06:36:34;101346.66;;;20.67;57.51
54248;BME280;40161;39.768;2.722;2022-10-16T06:38:59;101341.69;;;20.51;58.77
54248;BME280;40161;39.768;2.722;2022-10-16T06:41:24;101362.03;;;20.48;59.86
54248;BME280;40161;39.768;2.722;2022-10-16T06:43:50;101353.91;;;20.30;59.24
54248;BME280;40161;39.768;2.722;2022-10-16T06:46:16;101352.38;;;20.25;60.45
54248;BME280;40161;39.768;2.722;2022-10-16T06:48:42;101357.81;;;20.36;59.72
54248;BME280;40161;39.768;2.722;2022-10-16T06:51:12;101352.66;;;20.34;60.87
54248;BME280;40161;39.768;2.722;2022-10-16T06:53:39;101359.91;;;20.28;61.16
54248;BME280;40161;39.768;2.722;2022-10-16T06:56:12;101365.09;;;20.26;60.81
54248;BME280;40161;39.768;2.722;2022-10-16T06:58:38;101369.06;;;20.29;59.58
54248;BME280;40161;39.768;2.722;2022-10-16T07:01:04;101373.44;;;20.26;60.10
54248;BME280;40161;39.768;2.722;2022-10-16T07:03:29;101375.09;;;20.24;60.55
54248;BME280;40161;39.768;2.722;2022-10-16T07:05:54;101374.81;;;20.14;60.99
54248;BME280;40161;39.768;2.722;2022-10-16T07:08:20;101378.00;;;20.13;61.76
54248;BME280;40161;39.768;2.722;2022-10-16T07:10:45;101379.25;;;20.08;61.78
54248;BME280;40161;39.768;2.722;2022-10-16T07:13:11;101379.25;;;20.08;62.03
54248;BME280;40161;39.768;2.722;2022-10-16T07:15:40;101379.19;;;20.12;61.99
54248;BME280;40161;39.768;2.722;2022-10-16T07:18:05;101371.63;;;20.12;62.09
54248;BME280;40161;39.768;2.722;2022-10-16T07:20:30;101382.03;;;20.08;62.43
54248;BME280;40161;39.768;2.722;2022-10-16T07:22:56;101382.03;;;20.08;61.60
54248;BME280;40161;39.768;2.722;2022-10-16T07:25:21;101381.53;;;20.17;60.69
54248;BME280;40161;39.768;2.722;2022-10-16T07:27:46;101382.69;;;20.20;61.92
54248;BME280;40161;39.768;2.722;2022-10-16T07:30:12;101386.28;;;20.20;61.86
54248;BME280;40161;39.768;2.722;2022-10-16T07:32:37;101382.69;;;20.20;63.34
54248;BME280;40161;39.768;2.722;2022-10-16T07:35:03;101390.34;;;20.12;63.95
54248;BME280;40161;39.768;2.722;2022-10-16T07:37:28;101395.06;;;20.19;63.26
54248;BME280;40161;39.768;2.722;2022-10-16T07:39:53;101394.66;;;20.20;62.59
54248;BME280;40161;39.768;2.722;2022-10-16T07:42:19;101398.56;;;20.23;63.30
54248;BME280;40161;39.768;2.722;2022-10-16T07:44:45;101405.75;;;20.24;63.42
54248;BME280;40161;39.768;2.722;2022-10-16T07:47:10;101405.31;;;20.25;63.61
54248;BME280;40161;39.768;2.722;2022-10-16T07:49:35;101408.44;;;20.31;62.95
54248;BME280;40161;39.768;2.722;2022-10-16T07:52:01;101412.81;;;20.32;64.31
54248;BME280;40161;39.768;2.722;2022-10-16T07:54:26;101418.34;;;20.35;64.12
54248;BME280;40161;39.768;2.722;2022-10-16T07:56:51;101422.31;;;20.38;64.07
54248;BME280;40161;39.768;2.722;2022-10-16T07:59:17;101419.47;;;20.42;63.75
54248;BME280;40161;39.768;2.722;2022-10-16T08:01:42;101418.59;;;20.48;64.31
54248;BME280;40161;39.768;2.722;2022-10-16T08:04:08;101418.56;;;20.52;65.94
54248;BME280;40161;39.768;2.722;2022-10-16T08:06:35;101420.53;;;20.55;65.57
54248;BME280;40161;39.768;2.722;2022-10-16T08:09:00;101428.41;;;20.60;64.48
54248;BME280;40161;39.768;2.722;2022-10-16T08:11:26;101423.56;;;20.64;64.34
54248;BME280;40161;39.768;2.722;2022-10-16T08:13:51;101420.34;;;20.69;64.48
54248;BME280;40161;39.768;2.722;2022-10-16T08:16:16;101425.44;;;20.74;64.07
54248;BME280;40161;39.768;2.722;2022-10-16T08:18:42;101431.75;;;20.78;63.95
54248;BME280;40161;39.768;2.722;2022-10-16T08:21:12;101442.44;;;20.83;64.36
54248;BME280;40161;39.768;2.722;2022-10-16T08:23:37;101438.41;;;20.88;63.39
54248;BME280;40161;39.768;2.722;2022-10-16T08:26:04;101441.50;;;20.94;63.55
54248;BME280;40161;39.768;2.722;2022-10-16T08:28:30;101437.44;;;20.98;62.71
54248;BME280;40161;39.768;2.722;2022-10-16T08:30:55;101442.13;;;21.05;63.03
54248;BME280;40161;39.768;2.722;2022-10-16T08:33:22;101434.09;;;21.10;62.47
54248;BME280;40161;39.768;2.722;2022-10-16T08:35:53;101438.00;;;21.17;62.88
54248;BME280;40161;39.768;2.722;2022-10-16T08:38:19;101443.09;;;21.22;62.53
54248;BME280;40161;39.768;2.722;2022-10-16T08:40:44;101443.81;;;21.26;62.92
54248;BME280;40161;39.768;2.722;2022-10-16T08:50:46;101439.84;;;21.50;59.93
54248;BME280;40161;39.768;2.722;2022-10-16T08:53:17;101447.34;;;21.57;58.92
54248;BME280;40161;39.768;2.722;2022-10-16T08:55:54;101451.22;;;21.63;58.87
54248;BME280;40161;39.768;2.722;2022-10-16T08:58:25;101441.16;;;21.69;57.90
54248;BME280;40161;39.768;2.722;2022-10-16T09:01:01;101452.56;;;21.78;58.42
54248;BME280;40161;39.768;2.722;2022-10-16T09:12:00;101449.59;;;22.09;55.07
54248;BME280;40161;39.768;2.722;2022-10-16T09:17:20;101457.75;;;22.23;55.65
54248;BME280;40161;39.768;2.722;2022-10-16T09:19:51;101449.56;;;22.33;55.01
54248;BME280;40161;39.768;2.722;2022-10-16T09:22:19;101456.53;;;22.44;55.61
54248;BME280;40161;39.768;2.722;2022-10-16T09:24:46;101460.75;;;22.52;55.21
54248;BME280;40161;39.768;2.722;2022-10-16T09:27:12;101459.38;;;22.61;54.88
54248;BME280;40161;39.768;2.722;2022-10-16T09:29:38;101458.91;;;22.66;54.36
54248;BME280;40161;39.768;2.722;2022-10-16T09:32:11;101458.38;;;22.71;54.60
54248;BME280;40161;39.768;2.722;2022-10-16T09:34:39;101459.03;;;22.79;54.47
54248;BME280;40161;39.768;2.722;2022-10-16T09:37:09;101465.75;;;22.81;54.94
54248;BME280;40161;39.768;2.722;2022-10-16T09:39:48;101471.63;;;22.87;54.40
54248;BME280;40161;39.768;2.722;2022-10-16T09:42:14;101472.72;;;22.93;53.60
54248;BME280;40161;39.768;2.722;2022-10-16T09:44:40;101475.38;;;23.00;52.73
54248;BME280;40161;39.768;2.722;2022-10-16T09:47:16;101479.25;;;23.06;51.67
54248;BME280;40161;39.768;2.722;2022-10-16T09:52:22;101478.91;;;23.20;52.71
54248;BME280;40161;39.768;2.722;2022-10-16T09:54:51;101472.78;;;23.26;52.55
54248;BME280;40161;39.768;2.722;2022-10-16T09:57:17;101481.44;;;23.31;52.42
54248;BME280;40161;39.768;2.722;2022-10-16T09:59:46;101481.66;;;23.40;51.97
54248;BME280;40161;39.768;2.722;2022-10-16T10:02:13;101474.72;;;23.45;52.36
54248;BME280;40161;39.768;2.722;2022-10-16T10:04:52;101474.53;;;23.52;52.70
54248;BME280;40161;39.768;2.722;2022-10-16T10:07:32;101480.41;;;23.58;53.57
54248;BME280;40161;39.768;2.722;2022-10-16T10:10:04;101477.00;;;23.66;53.78
54248;BME280;40161;39.768;2.722;2022-10-16T10:12:30;101477.28;;;23.72;53.73
54248;BME280;40161;39.768;2.722;2022-10-16T10:15:11;101477.19;;;23.76;54.88
54248;BME280;40161;39.768;2.722;2022-10-16T10:17:54;101481.75;;;23.86;55.74
54248;BME280;40161;39.768;2.722;2022-10-16T10:20:24;101481.97;;;23.91;56.23
54248;BME280;40161;39.768;2.722;2022-10-16T10:22:50;101477.88;;;23.96;57.08
54248;BME280;40161;39.768;2.722;2022-10-16T10:25:24;101468.91;;;24.01;57.81
54248;BME280;40161;39.768;2.722;2022-10-16T10:27:56;101479.59;;;24.06;57.76
54248;BME280;40161;39.768;2.722;2022-10-16T10:35:49;101468.69;;;24.25;58.24
54248;BME280;40161;39.768;2.722;2022-10-16T10:38:20;101457.25;;;24.32;57.95
54248;BME280;40161;39.768;2.722;2022-10-16T10:45:51;101458.69;;;24.40;57.41
54248;BME280;40161;39.768;2.722;2022-10-16T10:48:24;101461.72;;;24.46;57.96
54248;BME280;40161;39.768;2.722;2022-10-16T11:01:32;101466.59;;;24.71;57.24
54248;BME280;40161;39.768;2.722;2022-10-16T11:06:44;101453.81;;;24.82;57.42
54248;BME280;40161;39.768;2.722;2022-10-16T11:09:15;101453.72;;;24.86;57.05
54248;BME280;40161;39.768;2.722;2022-10-16T11:16:38;101453.84;;;24.95;57.14
54248;BME280;40161;39.768;2.722;2022-10-16T11:21:39;101459.34;;;24.99;56.78
54248;BME280;40161;39.768;2.722;2022-10-16T11:26:39;101447.53;;;25.04;56.96
54248;BME280;40161;39.768;2.722;2022-10-16T11:29:10;101441.03;;;25.07;56.58
54248;BME280;40161;39.768;2.722;2022-10-16T11:31:43;101455.31;;;25.13;57.83
54248;BME280;40161;39.768;2.722;2022-10-16T11:34:24;101464.41;;;25.17;57.65
54248;BME280;40161;39.768;2.722;2022-10-16T11:36:57;101463.63;;;25.16;57.54
54248;BME280;40161;39.768;2.722;2022-10-16T11:39:31;101468.13;;;25.26;58.25
54248;BME280;40161;39.768;2.722;2022-10-16T11:49:40;101465.22;;;25.30;60.11
54248;BME280;40161;39.768;2.722;2022-10-16T11:52:12;101467.00;;;25.37;60.14
54248;BME280;40161;39.768;2.722;2022-10-16T11:55:16;101462.41;;;25.30;60.37
54248;BME280;40161;39.768;2.722;2022-10-16T11:57:33;101463.28;;;25.27;59.90
54248;BME280;40161;39.768;2.722;2022-10-16T12:00:14;101460.13;;;25.25;60.20
54248;BME280;40161;39.768;2.722;2022-10-16T12:07:59;101462.50;;;25.26;59.90
54248;BME280;40161;39.768;2.722;2022-10-16T12:10:27;101454.88;;;25.27;59.18
54248;BME280;40161;39.768;2.722;2022-10-16T12:12:53;101452.84;;;25.27;58.84
54248;BME280;40161;39.768;2.722;2022-10-16T12:15:23;101451.16;;;25.30;58.62
54248;BME280;40161;39.768;2.722;2022-10-16T12:17:49;101451.59;;;25.28;59.06
54248;BME280;40161;39.768;2.722;2022-10-16T12:20:26;101444.75;;;25.29;58.39
54248;BME280;40161;39.768;2.722;2022-10-16T12:22:53;101441.13;;;25.29;58.44
54248;BME280;40161;39.768;2.722;2022-10-16T12:25:24;101436.66;;;25.31;58.39
54248;BME280;40161;39.768;2.722;2022-10-16T12:28:02;101441.03;;;25.32;58.80
54248;BME280;40161;39.768;2.722;2022-10-16T12:30:30;101428.09;;;25.35;58.70
54248;BME280;40161;39.768;2.722;2022-10-16T12:33:03;101424.88;;;25.37;58.35
54248;BME280;40161;39.768;2.722;2022-10-16T12:35:30;101427.66;;;25.37;58.41
54248;BME280;40161;39.768;2.722;2022-10-16T12:38:07;101434.84;;;25.38;58.01
54248;BME280;40161;39.768;2.722;2022-10-16T12:40:34;101436.41;;;25.39;58.48
54248;BME280;40161;39.768;2.722;2022-10-16T12:43:10;101436.28;;;25.42;58.90
54248;BME280;40161;39.768;2.722;2022-10-16T12:45:36;101431.47;;;25.43;59.24
54248;BME280;40161;39.768;2.722;2022-10-16T12:48:02;101420.69;;;25.41;60.19
54248;BME280;40161;39.768;2.722;2022-10-16T12:50:31;101423.97;;;25.40;59.13
54248;BME280;40161;39.768;2.722;2022-10-16T12:52:57;101422.25;;;25.42;59.25
54248;BME280;40161;39.768;2.722;2022-10-16T12:55:23;101411.78;;;25.43;59.45
54248;BME280;40161;39.768;2.722;2022-10-16T12:58:00;101414.16;;;25.44;58.59
54248;BME280;40161;39.768;2.722;2022-10-16T13:03:28;101404.50;;;25.45;58.38
54248;BME280;40161;39.768;2.722;2022-10-16T13:13:30;101401.13;;;25.50;57.54
54248;BME280;40161;39.768;2.722;2022-10-16T13:21:18;101406.16;;;25.55;57.71
54248;BME280;40161;39.768;2.722;2022-10-16T13:23:50;101399.97;;;25.61;57.77
54248;BME280;40161;39.768;2.722;2022-10-16T13:29:00;101402.78;;;25.61;57.70
54248;BME280;40161;39.768;2.722;2022-10-16T13:31:26;101400.75;;;25.61;57.70
54248;BME280;40161;39.768;2.722;2022-10-16T13:33:52;101397.94;;;25.61;56.95
54248;BME280;40161;39.768;2.722;2022-10-16T13:36:25;101400.75;;;25.61;54.94
54248;BME280;40161;39.768;2.722;2022-10-16T13:41:25;101397.47;;;25.63;55.32
54248;BME280;40161;39.768;2.722;2022-10-16T13:43:51;101394.66;;;25.63;55.68
54248;BME280;40161;39.768;2.722;2022-10-16T13:46:18;101397.34;;;25.66;56.83
54248;BME280;40161;39.768;2.722;2022-10-16T13:48:44;101400.63;;;25.65;56.14
54248;BME280;40161;39.768;2.722;2022-10-16T13:53:38;101409.06;;;25.65;56.93
54248;BME280;40161;39.768;2.722;2022-10-16T13:56:05;101399.97;;;25.61;57.59
54248;BME280;40161;39.768;2.722;2022-10-16T13:58:30;101402.66;;;25.64;57.33
54248;BME280;40161;39.768;2.722;2022-10-16T14:01:06;101406.69;;;25.63;57.91
54248;BME280;40161;39.768;2.722;2022-10-16T14:03:40;101407.16;;;25.62;57.14
54248;BME280;40161;39.768;2.722;2022-10-16T14:06:06;101404.69;;;25.64;57.72
54248;BME280;40161;39.768;2.722;2022-10-16T14:08:36;101405.91;;;25.63;57.80
54248;BME280;40161;39.768;2.722;2022-10-16T14:11:06;101403.69;;;25.57;57.92
54248;BME280;40161;39.768;2.722;2022-10-16T14:13:44;101410.53;;;25.56;57.82
54248;BME280;40161;39.768;2.722;2022-10-16T14:16:11;101406.16;;;25.55;58.14
54248;BME280;40161;39.768;2.722;2022-10-16T14:18:41;101403.47;;;25.52;58.69
54248;BME280;40161;39.768;2.722;2022-10-16T14:21:14;101405.84;;;25.53;58.65
54248;BME280;40161;39.768;2.722;2022-10-16T14:23:41;101410.00;;;25.49;58.34
54248;BME280;40161;39.768;2.722;2022-10-16T14:28:32;101414.38;;;25.50;57.59
54248;BME280;40161;39.768;2.722;2022-10-16T14:30:58;101421.69;;;25.47;58.41
54248;BME280;40161;39.768;2.722;2022-10-16T14:38:27;101416.19;;;25.44;59.56
54248;BME280;40161;39.768;2.722;2022-10-16T14:40:53;101416.06;;;25.47;59.57
54248;BME280;40161;39.768;2.722;2022-10-16T14:43:52;101413.25;;;25.47;59.33
54248;BME280;40161;39.768;2.722;2022-10-16T14:46:14;101416.06;;;25.47;59.57